| time (UTC) | temp F | wind direction | speed knots | gust knots | rain 1hr in | rain 24hr in | rain mn in | humidity % | barometer mb |
| 20260508084541 | 46 | 0 | 0.0 | 0.0 | 0.00 | 0.48 | 0.00 | 90 | 1016.7 |
| 20260508083056 | 46 | 0 | 0.0 | 0.0 | 0.00 | 0.48 | 0.00 | 90 | 1016.7 |
| 20260508081552 | 46 | 0 | 0.0 | 0.0 | 0.00 | 0.48 | 0.00 | 91 | 1016.6 |
| 20260508080036 | 47 | 0 | 0.0 | 0.0 | 0.00 | 0.48 | 0.00 | 90 | 1016.4 |
| 20260508074534 | 47 | 0 | 0.0 | 0.0 | 0.00 | 0.51 | 0.00 | 91 | 1016.5 |
| 20260508073043 | 47 | 0 | 0.0 | 0.0 | 0.00 | 0.51 | 0.00 | 91 | 1016.4 |
| 20260508071538 | 46 | 0 | 0.0 | 0.0 | 0.00 | 0.51 | 0.00 | 93 | 1016.3 |
| 20260508070135 | 46 | 0 | 0.0 | 0.0 | 0.00 | 0.51 | 0.00 | 93 | 1016.2 |
| 20260508064543 | 46 | 0 | 0.0 | 0.0 | 0.00 | 0.52 | 0.00 | 92 | 1015.9 |
| 20260508063041 | 47 | 0 | 0.0 | 0.0 | 0.00 | 0.52 | 0.00 | 93 | 1016.1 |
| 20260508061544 | 47 | 0 | 0.0 | 0.0 | 0.00 | 0.52 | 0.00 | 93 | 1016.1 |
| 20260508060040 | 47 | 0 | 0.0 | 0.0 | 0.00 | 0.52 | 0.00 | 93 | 1016.1 |
| 20260508054537 | 47 | 0 | 0.0 | 0.0 | 0.00 | 0.55 | 0.00 | 92 | 1016.1 |
| 20260508053036 | 47 | 0 | 0.0 | 0.0 | 0.00 | 0.55 | 0.00 | 93 | 1016.1 |
| 20260508051535 | 47 | 0 | 0.0 | 0.0 | 0.00 | 0.55 | 0.00 | 93 | 1015.9 |
| 20260508050044 | 48 | 0 | 0.0 | 0.0 | 0.00 | 0.55 | 0.00 | 93 | 1015.8 |
| 20260508044552 | 48 | 0 | 0.0 | 0.0 | 0.00 | 0.56 | 0.00 | 93 | 1015.8 |
| 20260508043057 | 48 | 0 | 0.0 | 0.0 | 0.00 | 0.56 | 0.00 | 93 | 1015.8 |
| 20260508041540 | 48 | 0 | 0.0 | 0.0 | 0.00 | 0.56 | 0.00 | 93 | 1015.7 |
| 20260508040039 | 48 | 0 | 0.0 | 0.0 | 0.00 | 0.56 | 0.00 | 93 | 1015.6 |
| 20260508034542 | 48 | 0 | 0.0 | 0.0 | 0.00 | 0.58 | 0.56 | 92 | 1015.6 |
| 20260508033035 | 49 | 0 | 0.0 | 0.0 | 0.00 | 0.58 | 0.56 | 92 | 1015.5 |
| 20260508031551 | 49 | 0 | 0.0 | 0.0 | 0.00 | 0.58 | 0.56 | 92 | 1015.5 |
| 20260508030051 | 49 | 0 | 0.0 | 0.0 | 0.00 | 0.58 | 0.56 | 91 | 1015.1 |
| 20260508024544 | 50 | 0 | 0.0 | 0.0 | 0.00 | 0.62 | 0.56 | 91 | 1015.1 |
| 20260508023044 | 51 | 0 | 0.0 | 0.0 | 0.00 | 0.62 | 0.56 | 91 | 1015.0 |
| 20260508021541 | 51 | 0 | 0.0 | 0.0 | 0.00 | 0.62 | 0.56 | 90 | 1014.5 |
| 20260508020043 | 52 | 0 | 0.0 | 0.0 | 0.00 | 0.62 | 0.56 | 90 | 1014.5 |
| 20260508014543 | 53 | 0 | 0.0 | 0.0 | 0.00 | 0.64 | 0.56 | 88 | 1014.2 |
| 20260508013041 | 54 | 0 | 0.0 | 2.6 | 0.00 | 0.64 | 0.56 | 87 | 1014.0 |
| 20260508011540 | 54 | 0 | 0.0 | 0.0 | 0.00 | 0.64 | 0.56 | 92 | 1013.5 |
| 20260508010042 | 54 | 0 | 0.0 | 0.0 | 0.00 | 0.64 | 0.56 | 93 | 1013.3 |
| 20260508004534 | 54 | 0 | 0.0 | 0.0 | 0.00 | 0.66 | 0.56 | 93 | 1013.3 |
| 20260508003042 | 55 | 0 | 0.0 | 0.0 | 0.00 | 0.66 | 0.56 | 91 | 1013.2 |
| 20260508001546 | 56 | 0 | 0.0 | 0.0 | 0.00 | 0.66 | 0.56 | 92 | 1013.1 |
| 20260508000037 | 56 | 0 | 0.0 | 0.9 | 0.00 | 0.66 | 0.56 | 91 | 1013.3 |
| 20260507234547 | 57 | 0 | 0.0 | 0.0 | 0.00 | 0.66 | 0.56 | 88 | 1012.9 |
| 20260507233043 | 57 | 0 | 0.0 | 0.0 | 0.00 | 0.66 | 0.56 | 89 | 1012.8 |
| 20260507231542 | 57 | 0 | 0.0 | 0.0 | 0.00 | 0.66 | 0.56 | 88 | 1012.5 |
| 20260507230043 | 57 | 0 | 0.0 | 1.7 | 0.00 | 0.66 | 0.56 | 89 | 1012.4 |
| 20260507224538 | 57 | 34 | 0.9 | 3.5 | 0.00 | 0.66 | 0.56 | 89 | 1012.0 |
| 20260507223046 | 58 | 0 | 0.9 | 3.5 | 0.00 | 0.66 | 0.56 | 88 | 1011.8 |
| 20260507221535 | 58 | 0 | 0.0 | 2.6 | 0.00 | 0.66 | 0.56 | 88 | 1011.7 |
| 20260507220043 | 58 | 106 | 0.0 | 3.5 | 0.00 | 0.66 | 0.56 | 89 | 1011.7 |
| 20260507214541 | 58 | 0 | 0.0 | 6.1 | 0.00 | 0.66 | 0.56 | 89 | 1011.5 |
| 20260507213056 | 58 | 0 | 0.9 | 2.6 | 0.00 | 0.66 | 0.56 | 89 | 1011.5 |
| 20260507211537 | 58 | 67 | 0.9 | 3.5 | 0.00 | 0.66 | 0.56 | 90 | 1011.3 |
| 20260507210042 | 57 | 109 | 0.9 | 5.2 | 0.00 | 0.66 | 0.56 | 91 | 1011.3 |
| 20260507204540 | 57 | 98 | 2.6 | 7.8 | 0.01 | 0.66 | 0.56 | 90 | 1011.0 |
| 20260507203041 | 57 | 54 | 0.9 | 4.3 | 0.07 | 0.66 | 0.56 | 90 | 1011.3 |
| 20260507201546 | 58 | 42 | 1.7 | 7.0 | 0.19 | 0.66 | 0.56 | 91 | 1011.2 |
| 20260507200039 | 58 | 67 | 1.7 | 5.2 | 0.28 | 0.66 | 0.56 | 91 | 1011.2 |
| 20260507194545 | 57 | 25 | 1.7 | 5.2 | 0.27 | 0.65 | 0.55 | 92 | 1011.5 |
| 20260507193044 | 58 | 44 | 2.6 | 6.1 | 0.21 | 0.58 | 0.49 | 92 | 1011.5 |
| 20260507191556 | 59 | 23 | 1.7 | 7.8 | 0.08 | 0.46 | 0.36 | 90 | 1011.3 |
| 20260507190042 | 60 | 22 | 1.7 | 5.2 | 0.00 | 0.38 | 0.28 | 87 | 1010.6 |
| 20260507184539 | 61 | 61 | 1.7 | 5.2 | 0.00 | 0.38 | 0.28 | 86 | 1011.2 |
| 20260507183047 | 61 | 96 | 0.9 | 4.3 | 0.00 | 0.38 | 0.28 | 86 | 1011.0 |
| 20260507181543 | 62 | 101 | 1.7 | 5.2 | 0.00 | 0.38 | 0.28 | 86 | 1010.9 |
| 20260507180043 | 62 | 63 | 0.9 | 4.3 | 0.00 | 0.38 | 0.28 | 85 | 1011.1 |
| 20260507174544 | 63 | 25 | 0.9 | 2.6 | 0.00 | 0.40 | 0.28 | 87 | 1010.9 |
| 20260507173051 | 63 | 0 | 0.9 | 3.5 | 0.00 | 0.40 | 0.28 | 87 | 1010.9 |
| 20260507171549 | 63 | 130 | 0.9 | 5.2 | 0.00 | 0.40 | 0.28 | 86 | 1011.2 |
| 20260507170045 | 64 | 63 | 0.0 | 3.5 | 0.00 | 0.40 | 0.28 | 88 | 1011.3 |
| 20260507164555 | 64 | 60 | 1.7 | 6.1 | 0.00 | 0.40 | 0.28 | 88 | 1011.2 |
| 20260507163042 | 64 | 24 | 1.7 | 6.1 | 0.00 | 0.40 | 0.28 | 89 | 1011.0 |
| 20260507161542 | 68 | 0 | 0.0 | 0.0 | 0.00 | 0.40 | 0.28 | 85 | 1010.6 |
| 20260507160047 | 66 | 0 | 0.0 | 0.0 | 0.00 | 0.40 | 0.28 | 89 | 1010.8 |
| 20260507154544 | 66 | 0 | 0.0 | 0.0 | 0.00 | 0.40 | 0.28 | 91 | 1011.2 |
| 20260507153042 | 65 | 0 | 0.0 | 0.0 | 0.00 | 0.40 | 0.28 | 92 | 1011.3 |
| 20260507151542 | 64 | 0 | 0.0 | 0.0 | 0.00 | 0.40 | 0.28 | 93 | 1011.6 |
| 20260507150048 | 64 | 240 | 0.0 | 1.7 | 0.00 | 0.40 | 0.28 | 93 | 1011.9 |
| 20260507144543 | 64 | 0 | 0.0 | 1.7 | 0.00 | 0.40 | 0.28 | 93 | 1011.8 |
| 20260507143104 | 64 | 0 | 0.0 | 1.7 | 0.00 | 0.40 | 0.28 | 92 | 1011.1 |
| 20260507141600 | 63 | 0 | 0.0 | 1.7 | 0.00 | 0.40 | 0.28 | 93 | 1011.1 |
| 20260507140050 | 63 | 0 | 0.0 | 1.7 | 0.03 | 0.40 | 0.28 | 94 | 1011.3 |
| 20260507134542 | 63 | 0 | 0.0 | 0.9 | 0.05 | 0.40 | 0.28 | 94 | 1011.5 |
| 20260507133043 | 62 | 0 | 0.0 | 0.0 | 0.08 | 0.40 | 0.28 | 94 | 1011.4 |
| 20260507131552 | 62 | 0 | 0.0 | 1.7 | 0.12 | 0.39 | 0.27 | 94 | 1011.2 |
| 20260507130050 | 62 | 0 | 0.0 | 1.7 | 0.13 | 0.37 | 0.25 | 94 | 1011.3 |
| 20260507124539 | 62 | 240 | 0.0 | 3.5 | 0.14 | 0.35 | 0.23 | 94 | 1011.9 |
| 20260507123050 | 62 | 0 | 0.0 | 2.6 | 0.12 | 0.32 | 0.20 | 94 | 1012.6 |
| 20260507121547 | 62 | 275 | 0.0 | 2.6 | 0.07 | 0.27 | 0.15 | 94 | 1012.4 |
| 20260507120048 | 62 | 0 | 0.0 | 0.9 | 0.04 | 0.24 | 0.12 | 94 | 1011.9 |
| 20260507114536 | 62 | 0 | 0.0 | 0.0 | 0.01 | 0.21 | 0.09 | 94 | 1012.4 |
| 20260507113045 | 62 | 0 | 0.0 | 0.0 | 0.00 | 0.20 | 0.08 | 94 | 1011.9 |
| 20260507111543 | 62 | 0 | 0.0 | 0.0 | 0.00 | 0.20 | 0.08 | 94 | 1011.8 |
| 20260507110046 | 62 | 0 | 0.0 | 0.0 | 0.00 | 0.20 | 0.08 | 94 | 1011.6 |
| 20260507104543 | 62 | 0 | 0.0 | 0.0 | 0.00 | 0.20 | 0.08 | 94 | 1011.5 |
| 20260507103039 | 62 | 0 | 0.0 | 0.0 | 0.00 | 0.20 | 0.08 | 94 | 1011.5 |
| 20260507101537 | 62 | 0 | 0.0 | 0.0 | 0.00 | 0.20 | 0.08 | 94 | 1011.2 |
| 20260507100054 | 62 | 0 | 0.0 | 0.0 | 0.00 | 0.20 | 0.08 | 94 | 1011.5 |
| 20260507094544 | 62 | 0 | 0.0 | 0.0 | 0.00 | 0.20 | 0.08 | 94 | 1011.6 |
| 20260507093040 | 62 | 0 | 0.0 | 0.0 | 0.00 | 0.20 | 0.08 | 94 | 1011.6 |
| 20260507091541 | 62 | 0 | 0.0 | 0.0 | 0.00 | 0.20 | 0.08 | 94 | 1011.7 |